Time;durP1;ratioP1;P1;durP2;ratioP2;P2;SDS_P1;SDS_P2;PMS_P1;PMS_P2;Temp;Humidity;BMP_temperature;BMP_pressure;BME280_temperature;BME280_humidity;BME280_pressure;Samples;Min_cycle;Max_cycle;Signal;HPM_P1;HPM_P2
2022/09/16 00:01:37;;;;;;;;;;;;;;;13.20;100.00;101036.88;5065680;28;19933;-31
2022/09/16 00:04:04;;;;;;;;;;;;;;;13.12;100.00;101030.03;5050639;28;19991;-32
2022/09/16 00:06:32;;;;;;;;;;;;;;;13.04;100.00;101028.78;5062391;28;20377;-31
2022/09/16 00:09:01;;;;;;;;;;;;;;;13.01;100.00;101025.75;5051355;28;19928;-33
2022/09/16 00:11:28;;;;;;;;;;;;;;;12.97;100.00;101028.38;5063322;28;19925;-31
2022/09/16 00:13:56;;;;;;;;;;;;;;;12.93;100.00;101026.50;5050143;28;19933;-31
2022/09/16 00:16:25;;;;;;;;;;;;;;;12.88;100.00;101019.03;5061100;28;19975;-31
2022/09/16 00:18:53;;;;;;;;;;;;;;;12.84;100.00;101022.75;5052524;28;19975;-31
2022/09/16 00:21:20;;;;;;;;;;;;;;;12.81;100.00;101024.19;5054954;28;19979;-31
2022/09/16 00:23:48;;;;;;;;;;;;;;;12.78;100.00;101019.25;5068508;28;19947;-33
2022/09/16 00:26:17;;;;;;;;;;;;;;;12.76;100.00;101022.34;5067616;28;19925;-33
2022/09/16 00:28:47;;;;;;;;;;;;;;;12.74;100.00;101002.22;5068014;28;19925;-33
2022/09/16 00:31:15;;;;;;;;;;;;;;;12.72;100.00;101007.31;5069258;28;19925;-32
2022/09/16 00:33:42;;;;;;;;;;;;;;;12.73;100.00;101014.56;5067268;28;20057;-31
2022/09/16 00:36:11;;;;;;;;;;;;;;;12.73;100.00;101003.38;5070327;28;19952;-31
2022/09/16 00:38:39;;;;;;;;;;;;;;;12.75;100.00;101011.47;5065060;28;19929;-33
2022/09/16 00:41:07;;;;;;;;;;;;;;;12.76;100.00;101007.53;5072475;28;19928;-35
2022/09/16 00:43:49;;;;;;;;;;;;;;;12.77;100.00;101014.78;5062419;28;20007;-33
2022/09/16 00:46:18;;;;;;;;;;;;;;;12.80;100.00;101004.91;5070148;28;19928;-31
2022/09/16 00:48:46;;;;;;;;;;;;;;;12.81;100.00;101006.56;5071728;28;20464;-32
2022/09/16 00:51:15;;;;;;;;;;;;;;;12.83;100.00;101021.09;5055133;28;19994;-31
2022/09/16 00:53:45;;;;;;;;;;;;;;;12.85;100.00;101024.41;5064948;28;20345;-32
2022/09/16 00:56:14;;;;;;;;;;;;;;;12.88;100.00;101015.41;5054824;28;19925;-31
2022/09/16 00:58:44;;;;;;;;;;;;;;;12.87;100.00;101008.97;5064838;28;19970;-33
2022/09/16 01:01:13;;;;;;;;;;;;;;;12.87;100.00;101016.53;5053881;28;19982;-31
2022/09/16 01:03:44;;;;;;;;;;;;;;;12.84;100.00;101014.34;5060636;28;19935;-34
2022/09/16 01:06:12;;;;;;;;;;;;;;;12.81;100.00;101017.78;5073685;28;20446;-33
2022/09/16 01:08:42;;;;;;;;;;;;;;;12.77;100.00;101018.41;5060823;28;19925;-31
2022/09/16 01:11:10;;;;;;;;;;;;;;;12.73;100.00;101014.56;5072961;28;19928;-36
2022/09/16 01:13:38;;;;;;;;;;;;;;;12.71;100.00;101013.22;5061068;28;20129;-36
2022/09/16 01:16:09;;;;;;;;;;;;;;;12.70;100.00;101015.19;5073452;28;19929;-36
2022/09/16 01:18:41;;;;;;;;;;;;;;;12.70;100.00;101018.00;5060445;28;19924;-33
2022/09/16 01:21:24;;;;;;;;;;;;;;;12.70;100.00;101011.56;5055526;28;19979;-39
2022/09/16 01:24:11;;;;;;;;;;;;;;;12.72;100.00;101015.72;5066994;28;19952;-32
2022/09/16 01:27:07;;;;;;;;;;;;;;;12.77;100.00;101017.59;5053283;28;19936;-31
2022/09/16 01:29:58;;;;;;;;;;;;;;;12.82;100.00;101019.44;5067929;28;19929;-31
2022/09/16 01:32:30;;;;;;;;;;;;;;;12.86;100.00;101020.47;5047989;28;19975;-32
2022/09/16 01:35:03;;;;;;;;;;;;;;;12.87;100.00;101022.97;5064252;28;19959;-36
2022/09/16 01:37:40;;;;;;;;;;;;;;;12.95;100.00;101029.84;5053409;28;19971;-34
2022/09/16 01:40:10;;;;;;;;;;;;;;;13.02;100.00;101030.22;5067143;28;19924;-35
2022/09/16 01:42:41;;;;;;;;;;;;;;;12.98;100.00;101035.66;5053090;28;20397;-33
2022/09/16 01:45:16;;;;;;;;;;;;;;;12.90;100.00;101027.13;5063534;28;20078;-32
2022/09/16 01:47:50;;;;;;;;;;;;;;;12.85;100.00;101016.84;5053038;28;19929;-33
2022/09/16 01:50:19;;;;;;;;;;;;;;;12.83;100.00;101027.53;5066108;28;19979;-32
2022/09/16 01:52:52;;;;;;;;;;;;;;;12.80;100.00;101016.13;5052174;28;19924;-32
2022/09/16 01:55:24;;;;;;;;;;;;;;;12.77;100.00;101018.41;5061108;28;19924;-33
2022/09/16 01:57:54;;;;;;;;;;;;;;;12.75;100.00;101019.88;5072655;28;19967;-32
2022/09/16 02:00:22;;;;;;;;;;;;;;;12.72;100.00;101017.69;5058646;28;20339;-32
2022/09/16 02:02:54;;;;;;;;;;;;;;;12.68;100.00;101019.44;5072814;28;19970;-32
2022/09/16 02:05:24;;;;;;;;;;;;;;;12.66;100.00;101021.72;5059768;28;19925;-32
2022/09/16 02:07:54;;;;;;;;;;;;;;;12.67;100.00;101024.19;5071961;28;20400;-33
2022/09/16 02:10:25;;;;;;;;;;;;;;;12.66;100.00;101021.72;5060146;28;20347;-34
2022/09/16 02:12:54;;;;;;;;;;;;;;;12.59;100.00;101018.50;5071596;28;19928;-32
2022/09/16 02:15:23;;;;;;;;;;;;;;;12.55;100.00;101020.25;5068017;28;19966;-32
2022/09/16 02:17:54;;;;;;;;;;;;;;;12.54;100.00;101011.03;5053642;28;20324;-31
2022/09/16 02:20:25;;;;;;;;;;;;;;;12.55;100.00;101015.50;5060550;28;20019;-31
2022/09/16 02:22:55;;;;;;;;;;;;;;;12.57;100.00;101012.38;5070890;28;19982;-32
2022/09/16 02:25:23;;;;;;;;;;;;;;;12.58;100.00;101016.84;5067474;28;20358;-31
2022/09/16 02:27:51;;;;;;;;;;;;;;;12.58;100.00;101014.88;5055399;28;19928;-32
2022/09/16 02:30:20;;;;;;;;;;;;;;;12.64;100.00;101001.59;5057965;28;20282;-31
2022/09/16 02:32:49;;;;;;;;;;;;;;;12.72;100.00;101023.28;5058051;28;19924;-32
2022/09/16 02:35:20;;;;;;;;;;;;;;;12.80;100.00;101022.53;5055418;28;19925;-31
2022/09/16 02:37:50;;;;;;;;;;;;;;;12.87;100.00;101030.53;5059072;28;19960;-31
2022/09/16 02:40:19;;;;;;;;;;;;;;;12.85;100.00;101035.63;5054747;28;20002;-32
2022/09/16 02:42:48;;;;;;;;;;;;;;;12.75;100.00;101028.25;5060255;28;19928;-32
2022/09/16 02:45:16;;;;;;;;;;;;;;;12.62;100.00;101018.69;5053105;28;19933;-32
2022/09/16 02:47:48;;;;;;;;;;;;;;;12.53;100.00;101023.34;5071316;28;19950;-33
2022/09/16 02:50:17;;;;;;;;;;;;;;;12.47;100.00;101023.75;5058686;28;19947;-32
2022/09/16 02:52:51;;;;;;;;;;;;;;;12.40;100.00;101022.19;5062860;28;19925;-34
2022/09/16 02:55:25;;;;;;;;;;;;;;;12.33;100.00;101018.97;5052164;28;19983;-32
2022/09/16 02:57:53;;;;;;;;;;;;;;;12.29;100.00;101022.69;5062904;28;19975;-32
2022/09/16 03:00:21;;;;;;;;;;;;;;;12.23;100.00;101013.53;5052557;28;19928;-32
2022/09/16 03:02:48;;;;;;;;;;;;;;;12.22;100.00;101009.06;5061884;28;19974;-31
2022/09/16 03:05:16;;;;;;;;;;;;;;;12.27;100.00;101022.16;5051564;28;19978;-32
2022/09/16 03:07:44;;;;;;;;;;;;;;;12.31;100.00;101015.63;5059066;28;19993;-31
2022/09/16 03:10:13;;;;;;;;;;;;;;;12.36;100.00;101025.91;5070772;28;20427;-31
2022/09/16 03:12:49;;;;;;;;;;;;;;;12.38;100.00;101016.09;5058620;28;19925;-32
2022/09/16 03:15:33;;;;;;;;;;;;;;;12.39;100.00;101028.06;5071572;28;19925;-32
2022/09/16 03:18:15;;;;;;;;;;;;;;;12.33;100.00;101018.13;5058165;28;19924;-33
2022/09/16 03:20:46;;;;;;;;;;;;;;;12.28;100.00;101016.25;5071797;28;19928;-32
2022/09/16 03:23:18;;;;;;;;;;;;;;;12.24;100.00;101019.97;5058224;28;19924;-32
2022/09/16 03:25:53;;;;;;;;;;;;;;;12.23;100.00;101018.28;5071315;28;19925;-32
2022/09/16 03:28:24;;;;;;;;;;;;;;;12.24;100.00;101017.16;5058502;28;19932;-32
2022/09/16 03:30:55;;;;;;;;;;;;;;;12.24;100.00;101009.59;5070033;28;19924;-33
2022/09/16 03:33:26;;;;;;;;;;;;;;;12.24;100.00;101015.19;5056887;28;19978;-32
2022/09/16 03:35:57;;;;;;;;;;;;;;;12.25;100.00;101016.03;5070307;28;19982;-35
2022/09/16 03:38:25;;;;;;;;;;;;;;;12.28;100.00;101026.59;5056005;28;19999;-31
2022/09/16 03:40:54;;;;;;;;;;;;;;;12.32;100.00;101041.66;5069739;28;19963;-34
2022/09/16 03:43:21;;;;;;;;;;;;;;;12.36;100.00;101031.50;5058908;28;19955;-32
2022/09/16 03:45:51;;;;;;;;;;;;;;;12.36;100.00;101034.31;5068749;28;20389;-33
2022/09/16 03:48:18;;;;;;;;;;;;;;;12.35;100.00;101032.66;5061439;28;20278;-32
2022/09/16 03:50:46;;;;;;;;;;;;;;;12.30;100.00;101041.13;5069067;28;19990;-32
2022/09/16 03:53:13;;;;;;;;;;;;;;;12.27;100.00;101027.75;5065982;28;20345;-34
2022/09/16 03:55:41;;;;;;;;;;;;;;;12.22;100.00;101022.22;5055483;28;19925;-33
2022/09/16 03:58:10;;;;;;;;;;;;;;;12.20;100.00;101030.94;5056385;28;20369;-32
2022/09/16 04:00:37;;;;;;;;;;;;;;;12.20;100.00;101021.69;5061829;28;19928;-33
2022/09/16 04:03:05;;;;;;;;;;;;;;;12.20;100.00;101021.69;5057789;28;19925;-34
2022/09/16 04:05:33;;;;;;;;;;;;;;;12.20;100.00;101019.75;5063581;28;20331;-33
2022/09/16 04:08:00;;;;;;;;;;;;;;;12.17;100.00;101020.38;5056098;28;19990;-32
2022/09/16 04:10:28;;;;;;;;;;;;;;;12.14;100.00;101020.16;5074828;28;20328;-31
2022/09/16 04:12:57;;;;;;;;;;;;;;;12.14;100.00;101006.16;5072248;28;19928;-32
2022/09/16 04:15:25;;;;;;;;;;;;;;;12.18;100.00;101024.00;5063175;28;20451;-32
2022/09/16 04:17:55;;;;;;;;;;;;;;;12.25;100.00;101021.63;5073210;28;19958;-36
2022/09/16 04:20:22;;;;;;;;;;;;;;;12.31;100.00;101014.81;5062365;28;19952;-31
2022/09/16 04:22:50;;;;;;;;;;;;;;;12.33;100.00;101006.94;5058442;28;19929;-32
2022/09/16 04:25:17;;;;;;;;;;;;;;;12.36;100.00;101011.94;5066512;28;20062;-32
2022/09/16 04:27:45;;;;;;;;;;;;;;;12.40;100.00;101004.56;5053614;28;20692;-31
2022/09/16 04:30:13;;;;;;;;;;;;;;;12.44;100.00;101008.41;5066885;28;19924;-33
2022/09/16 04:32:42;;;;;;;;;;;;;;;12.47;100.00;101006.97;5054484;28;19932;-32
2022/09/16 04:35:09;;;;;;;;;;;;;;;12.51;100.00;101006.03;5065103;28;19928;-31
2022/09/16 04:37:37;;;;;;;;;;;;;;;12.53;100.00;101006.56;5054536;28;19924;-32
2022/09/16 04:40:05;;;;;;;;;;;;;;;12.54;100.00;101007.41;5063559;28;20370;-31
2022/09/16 04:42:33;;;;;;;;;;;;;;;12.55;100.00;101001.50;5055671;28;20031;-33
2022/09/16 04:45:00;;;;;;;;;;;;;;;12.58;100.00;101003.69;5061371;28;19974;-31
2022/09/16 04:47:28;;;;;;;;;;;;;;;12.62;100.00;100996.28;5057823;28;19990;-31
2022/09/16 04:49:57;;;;;;;;;;;;;;;12.66;100.00;100997.34;5060694;28;20058;-31
2022/09/16 04:52:24;;;;;;;;;;;;;;;12.71;100.00;100996.41;5060109;28;20378;-31
2022/09/16 04:54:52;;;;;;;;;;;;;;;12.75;100.00;100987.09;5056746;28;19924;-31
2022/09/16 04:57:19;;;;;;;;;;;;;;;12.81;100.00;101001.81;5062160;28;20404;-31
2022/09/16 04:59:47;;;;;;;;;;;;;;;12.87;100.00;101008.97;5055217;28;19982;-32
2022/09/16 05:02:14;;;;;;;;;;;;;;;12.89;100.00;101011.47;5063800;28;19932;-33
2022/09/16 05:04:42;;;;;;;;;;;;;;;12.87;100.00;101016.53;5055222;28;19959;-32
2022/09/16 05:07:10;;;;;;;;;;;;;;;12.79;100.00;101008.88;5064759;28;20015;-36
2022/09/16 05:09:38;;;;;;;;;;;;;;;12.73;100.00;100994.13;5053470;28;19982;-32
2022/09/16 05:12:07;;;;;;;;;;;;;;;12.69;100.00;100991.13;5067866;28;20300;-32
2022/09/16 05:14:34;;;;;;;;;;;;;;;12.67;100.00;100999.00;5065939;28;19925;-31
2022/09/16 05:17:02;;;;;;;;;;;;;;;12.64;100.00;100984.78;5059692;28;19924;-33
2022/09/16 05:19:29;;;;;;;;;;;;;;;12.58;100.00;100986.88;5073021;28;20403;-32
2022/09/16 05:21:57;;;;;;;;;;;;;;;12.62;100.00;100996.28;5067385;28;19932;-31
2022/09/16 05:24:26;;;;;;;;;;;;;;;12.70;100.00;100978.78;5072127;28;20375;-32
2022/09/16 05:26:53;;;;;;;;;;;;;;;12.78;100.00;100988.44;5061169;28;19929;-32
2022/09/16 05:29:21;;;;;;;;;;;;;;;12.82;100.00;100994.22;5072952;28;20024;-33
2022/09/16 05:31:49;;;;;;;;;;;;;;;12.76;97.53;100993.53;5062355;28;19971;-32
2022/09/16 05:34:18;;;;;;;;;;;;;;;12.74;94.24;100991.03;5070883;28;19955;-34
2022/09/16 05:36:46;;;;;;;;;;;;;;;12.80;93.85;101000.13;5064012;28;19951;-32
2022/09/16 05:39:15;;;;;;;;;;;;;;;12.81;93.49;100996.19;5068741;28;19929;-32
2022/09/16 05:41:55;;;;;;;;;;;;;;;12.81;92.52;100989.78;5064309;28;19924;-32
2022/09/16 05:44:23;;;;;;;;;;;;;;;12.82;91.94;100997.03;5070973;28;19928;-32
2022/09/16 05:46:50;;;;;;;;;;;;;;;12.84;92.50;100989.16;5066017;28;19984;-32
2022/09/16 05:49:19;;;;;;;;;;;;;;;12.85;92.34;100988.84;5059374;28;20413;-31
2022/09/16 05:51:48;;;;;;;;;;;;;;;12.88;92.36;100991.03;5054248;28;19924;-33
2022/09/16 05:54:17;;;;;;;;;;;;;;;12.90;92.61;100994.34;5059503;28;20374;-32
2022/09/16 05:56:45;;;;;;;;;;;;;;;12.96;93.74;100995.06;5067271;28;19935;-31
2022/09/16 05:59:14;;;;;;;;;;;;;;;13.01;94.61;100995.78;5060830;28;19982;-33
2022/09/16 06:01:42;;;;;;;;;;;;;;;13.03;95.36;100990.69;5050522;28;20308;-32
2022/09/16 06:04:10;;;;;;;;;;;;;;;13.04;94.84;101005.53;5062412;28;19982;-37
2022/09/16 06:06:39;;;;;;;;;;;;;;;13.04;93.24;101005.53;5051753;28;19929;-32
2022/09/16 06:09:07;;;;;;;;;;;;;;;13.06;92.02;100992.88;5062326;28;19928;-31
2022/09/16 06:11:36;;;;;;;;;;;;;;;13.10;91.61;101005.13;5051511;28;19971;-32
2022/09/16 06:14:04;;;;;;;;;;;;;;;13.13;90.49;101012.09;5061848;28;19979;-32
2022/09/16 06:16:34;;;;;;;;;;;;;;;13.18;89.82;101011.19;5049803;28;19929;-32
2022/09/16 06:19:03;;;;;;;;;;;;;;;13.23;90.41;101011.03;5063828;28;20434;-32
2022/09/16 06:21:30;;;;;;;;;;;;;;;13.32;91.84;101001.59;5070477;28;19932;-33
2022/09/16 06:23:58;;;;;;;;;;;;;;;13.42;93.82;101006.97;5058272;28;19929;-32
2022/09/16 06:26:27;;;;;;;;;;;;;;;13.59;96.89;101017.50;5069775;28;19970;-37
2022/09/16 06:28:55;;;;;;;;;;;;;;;13.72;96.63;101021.44;5059227;28;19933;-32
2022/09/16 06:31:23;;;;;;;;;;;;;;;13.80;97.27;101027.09;5070068;28;20330;-33
2022/09/16 06:33:53;;;;;;;;;;;;;;;13.89;97.58;101026.38;5060014;28;19925;-33
2022/09/16 06:36:21;;;;;;;;;;;;;;;13.96;98.88;101027.59;5068545;28;19972;-32
2022/09/16 06:38:50;;;;;;;;;;;;;;;13.97;99.47;101026.44;5062655;28;20069;-32
2022/09/16 06:41:18;;;;;;;;;;;;;;;13.93;99.41;101017.00;5064974;28;19935;-32
2022/09/16 06:43:46;;;;;;;;;;;;;;;13.87;99.24;101017.44;5064529;28;19933;-32
2022/09/16 06:46:15;;;;;;;;;;;;;;;13.80;99.18;101020.66;5064561;28;19928;-32
2022/09/16 06:48:43;;;;;;;;;;;;;;;13.77;99.59;101018.53;5066090;28;20019;-36
2022/09/16 06:51:14;;;;;;;;;;;;;;;13.76;100.00;101012.09;5058515;28;20036;-32
2022/09/16 06:53:42;;;;;;;;;;;;;;;13.77;100.00;101013.75;5052904;28;19939;-32
2022/09/16 06:56:12;;;;;;;;;;;;;;;13.77;99.54;101015.72;5058686;28;19929;-32
2022/09/16 06:58:41;;;;;;;;;;;;;;;13.78;99.30;101017.38;5051876;28;19975;-32
2022/09/16 07:01:09;;;;;;;;;;;;;;;13.79;98.29;101019.00;5058289;28;19983;-31
2022/09/16 07:03:38;;;;;;;;;;;;;;;13.79;97.59;101013.41;5051063;28;19935;-32
2022/09/16 07:06:05;;;;;;;;;;;;;;;13.78;96.61;101018.22;5061477;28;19925;-32
2022/09/16 07:08:35;;;;;;;;;;;;;;;13.78;95.08;101020.19;5050031;28;19929;-32
2022/09/16 07:11:05;;;;;;;;;;;;;;;13.99;98.62;101020.50;5066484;28;20385;-31
2022/09/16 07:13:33;;;;;;;;;;;;;;;14.24;97.48;101033.06;5069548;28;19978;-33
2022/09/16 07:16:00;;;;;;;;;;;;;;;14.51;96.11;101029.31;5060093;28;19924;-32
2022/09/16 07:18:40;;;;;;;;;;;;;;;14.96;95.32;101027.22;5052523;28;20330;-32
2022/09/16 07:21:09;;;;;;;;;;;;;;;15.33;92.34;101018.25;5064188;28;19971;-38
2022/09/16 07:23:38;;;;;;;;;;;;;;;15.46;87.25;101016.44;5070067;28;19979;-32
2022/09/16 07:26:07;;;;;;;;;;;;;;;15.38;84.23;101018.09;5065547;28;20393;-32
2022/09/16 07:28:35;;;;;;;;;;;;;;;15.26;83.42;101012.25;5050745;28;19932;-32
2022/09/16 07:31:03;;;;;;;;;;;;;;;15.13;84.94;101021.66;5063178;28;19925;-32
2022/09/16 07:33:32;;;;;;;;;;;;;;;15.22;87.68;101019.69;5053493;28;19929;-33
2022/09/16 07:36:00;;;;;;;;;;;;;;;15.64;88.27;101008.88;5059559;28;19929;-32
2022/09/16 07:38:29;;;;;;;;;;;;;;;16.19;86.75;101023.94;5071907;28;19971;-32
2022/09/16 07:41:03;;;;;;;;;;;;;;;16.82;85.97;101022.31;5062772;28;19928;-32
2022/09/16 07:43:31;;;;;;;;;;;;;;;17.61;84.50;101026.38;5056790;28;19935;-32
2022/09/16 07:45:59;;;;;;;;;;;;;;;18.27;80.76;101023.69;5061178;28;20325;-32
2022/09/16 07:48:28;;;;;;;;;;;;;;;18.76;76.05;101033.19;5060209;28;20043;-33
2022/09/16 07:51:02;;;;;;;;;;;;;;;19.15;74.96;101025.22;5063022;28;19961;-33
2022/09/16 07:53:30;;;;;;;;;;;;;;;19.62;73.28;101025.56;5074914;28;19924;-36
2022/09/16 07:56:03;;;;;;;;;;;;;;;20.09;70.44;101020.13;5070425;28;19933;-32
2022/09/16 07:58:31;;;;;;;;;;;;;;;20.57;68.21;101021.97;5066480;28;19932;-30
2022/09/16 08:00:59;;;;;;;;;;;;;;;20.60;60.01;101026.06;5071509;28;19928;-34
2022/09/16 08:03:31;;;;;;;;;;;;;;;20.18;57.52;101026.44;5066128;28;20307;-33
2022/09/16 08:05:59;;;;;;;;;;;;;;;19.67;58.35;101027.31;5072361;28;19924;-36
2022/09/16 08:08:26;;;;;;;;;;;;;;;19.23;60.33;101027.09;5063947;28;19928;-32
2022/09/16 08:10:54;;;;;;;;;;;;;;;18.79;61.55;101045.78;5072991;28;19932;-35
2022/09/16 08:13:24;;;;;;;;;;;;;;;18.47;61.84;101041.78;5073975;28;19932;-32
2022/09/16 08:15:53;;;;;;;;;;;;;;;18.56;64.90;101040.53;5073225;28;19977;-37
2022/09/16 08:18:21;;;;;;;;;;;;;;;18.85;62.13;101042.38;5071198;28;20337;-35
2022/09/16 08:20:48;;;;;;;;;;;;;;;19.14;61.88;101041.38;5073404;28;20381;-43
2022/09/16 08:23:17;;;;;;;;;;;;;;;19.53;59.12;101034.19;5062045;28;19933;-40
2022/09/16 08:25:45;;;;;;;;;;;;;;;20.00;59.30;101036.44;5073191;28;19931;-35
2022/09/16 08:28:13;;;;;;;;;;;;;;;20.49;59.85;101037.09;5061490;28;19982;-35
2022/09/16 08:30:42;;;;;;;;;;;;;;;20.98;58.56;101037.63;5074202;28;19925;-34
2022/09/16 08:33:10;;;;;;;;;;;;;;;21.44;58.30;101049.34;5060959;28;19928;-34
2022/09/16 08:35:38;;;;;;;;;;;;;;;21.67;55.92;101050.31;5054099;28;19986;-38
2022/09/16 08:38:06;;;;;;;;;;;;;;;21.58;57.48;101046.06;5064231;28;19924;-42
2022/09/16 08:40:34;;;;;;;;;;;;;;;21.14;56.60;101045.34;5054847;28;19947;-40
2022/09/16 08:43:07;;;;;;;;;;;;;;;20.49;56.39;101042.78;5062322;28;19982;-33
2022/09/16 08:45:41;;;;;;;;;;;;;;;19.86;56.94;101047.34;5056190;28;19929;-33
2022/09/16 08:48:19;;;;;;;;;;;;;;;19.24;58.18;101048.56;5061192;28;19928;-33
2022/09/16 08:50:52;;;;;;;;;;;;;;;18.67;59.38;101057.06;5054906;28;19929;-33
2022/09/16 08:53:24;;;;;;;;;;;;;;;18.22;60.69;101061.44;5061771;28;19971;-39
2022/09/16 08:55:52;;;;;;;;;;;;;;;17.82;60.45;101057.47;5056467;28;19932;-39
2022/09/16 08:58:20;;;;;;;;;;;;;;;17.54;60.30;101060.78;5060979;28;19924;-34
2022/09/16 09:00:53;;;;;;;;;;;;;;;17.49;62.78;101063.81;5067426;28;19929;-36
2022/09/16 09:03:28;;;;;;;;;;;;;;;17.95;66.59;101073.34;5068085;28;19986;-35
2022/09/16 09:05:56;;;;;;;;;;;;;;;18.36;63.10;101075.31;5067651;28;19935;-34
2022/09/16 09:08:31;;;;;;;;;;;;;;;18.40;59.28;101075.41;5068129;28;19974;-33
2022/09/16 09:11:01;;;;;;;;;;;;;;;18.31;52.87;101074.69;5066671;28;19974;-42
2022/09/16 09:13:36;;;;;;;;;;;;;;;18.11;53.15;101071.53;5069533;28;19970;-41
2022/09/16 09:16:09;;;;;;;;;;;;;;;17.90;54.57;101077.19;5065203;28;19978;-32
2022/09/16 09:18:41;;;;;;;;;;;;;;;17.67;54.34;101078.66;5070389;28;19929;-43
2022/09/16 09:21:17;;;;;;;;;;;;;;;17.44;53.95;101083.75;5062783;28;19929;-32
2022/09/16 09:23:50;;;;;;;;;;;;;;;17.23;55.86;101080.84;5055368;28;20369;-34
2022/09/16 09:26:20;;;;;;;;;;;;;;;17.07;58.44;101084.59;5073203;28;19928;-32
2022/09/16 09:29:08;;;;;;;;;;;;;;;17.12;60.26;101082.41;5070265;28;20458;-34
2022/09/16 09:31:42;;;;;;;;;;;;;;;17.49;62.35;101097.66;5065900;28;19985;-43
2022/09/16 09:34:19;;;;;;;;;;;;;;;18.08;60.03;101080.69;5069380;28;20344;-33
2022/09/16 09:36:54;;;;;;;;;;;;;;;18.76;59.74;101072.78;5064920;28;19924;-33
2022/09/16 09:39:37;;;;;;;;;;;;;;;19.41;54.14;101082.28;5068611;28;19924;-33
2022/09/16 09:42:10;;;;;;;;;;;;;;;19.86;52.98;101084.16;5065410;28;19937;-33
2022/09/16 09:44:49;;;;;;;;;;;;;;;19.94;50.39;101078.38;5067554;28;19925;-38
2022/09/16 09:47:20;;;;;;;;;;;;;;;20.06;48.08;101086.00;5066958;28;19935;-41
2022/09/16 09:49:52;;;;;;;;;;;;;;;20.46;49.64;101086.03;5066549;28;19928;-43
2022/09/16 09:52:22;;;;;;;;;;;;;;;20.89;49.08;101075.88;5059806;28;19929;-33
2022/09/16 09:54:50;;;;;;;;;;;;;;;21.20;47.63;101089.28;5055947;28;20019;-36
2022/09/16 09:57:22;;;;;;;;;;;;;;;21.15;44.19;101090.38;5060280;28;20390;-36
2022/09/16 09:59:51;;;;;;;;;;;;;;;21.19;45.78;101081.94;5053151;28;19935;-40
2022/09/16 10:02:20;;;;;;;;;;;;;;;21.44;44.71;101088.28;5062514;28;19925;-32
2022/09/16 10:04:49;;;;;;;;;;;;;;;21.64;44.29;101087.16;5051519;28;20350;-33
2022/09/16 10:07:18;;;;;;;;;;;;;;;21.97;47.89;101084.72;5063530;28;19935;-36
2022/09/16 10:09:48;;;;;;;;;;;;;;;22.15;45.05;101095.69;5053454;28;19929;-31
2022/09/16 10:12:25;;;;;;;;;;;;;;;21.97;44.33;101084.72;5062716;28;19929;-34
2022/09/16 10:14:53;;;;;;;;;;;;;;;21.94;46.90;101091.16;5053491;28;19925;-35
2022/09/16 10:17:20;;;;;;;;;;;;;;;21.92;46.98;101096.38;5063598;28;19971;-35
2022/09/16 10:19:59;;;;;;;;;;;;;;;22.07;47.53;101091.84;5051883;28;19982;-34
2022/09/16 10:22:28;;;;;;;;;;;;;;;22.29;43.92;101090.31;5063052;28;19928;-41
2022/09/16 10:24:57;;;;;;;;;;;;;;;22.24;42.88;101091.44;5052432;28;20019;-36
2022/09/16 10:27:26;;;;;;;;;;;;;;;21.89;41.99;101093.44;5063589;28;19957;-34
2022/09/16 10:30:07;;;;;;;;;;;;;;;21.50;42.75;101087.66;5070558;28;19970;-40
2022/09/16 10:32:44;;;;;;;;;;;;;;;21.24;43.41;101095.88;5058670;28;19978;-40
2022/09/16 10:35:17;;;;;;;;;;;;;;;21.13;46.55;101077.75;5071561;28;19925;-33
2022/09/16 10:37:49;;;;;;;;;;;;;;;21.19;46.52;101096.94;5059187;28;20389;-32
2022/09/16 10:40:18;;;;;;;;;;;;;;;21.44;44.96;101093.97;5070210;28;20298;-38
2022/09/16 10:42:46;;;;;;;;;;;;;;;21.59;43.09;101091.09;5064154;28;19933;-32
2022/09/16 10:45:16;;;;;;;;;;;;;;;21.52;44.24;101090.94;5050772;28;19936;-36
2022/09/16 10:47:47;;;;;;;;;;;;;;;21.40;44.21;101081.69;5062654;28;19974;-33
2022/09/16 10:50:17;;;;;;;;;;;;;;;21.22;45.75;101086.91;5064637;28;19932;-33
2022/09/16 10:52:46;;;;;;;;;;;;;;;21.27;45.10;101095.16;5058103;28;19929;-38
2022/09/16 10:55:21;;;;;;;;;;;;;;;21.48;44.38;101095.72;5070043;28;19929;-36
2022/09/16 10:57:48;;;;;;;;;;;;;;;21.55;43.79;101092.22;5059419;28;19928;-44
2022/09/16 11:00:17;;;;;;;;;;;;;;;21.62;42.93;101093.22;5068941;28;19928;-32
2022/09/16 11:03:05;;;;;;;;;;;;;;;21.69;42.36;101095.41;5058690;28;19929;-32
2022/09/16 11:05:38;;;;;;;;;;;;;;;21.64;42.35;101093.66;5070218;28;19966;-33
2022/09/16 11:08:11;;;;;;;;;;;;;;;21.66;43.63;101099.81;5063836;28;19974;-32
2022/09/16 11:10:43;;;;;;;;;;;;;;;21.88;44.97;101103.16;5051228;28;19928;-34
2022/09/16 11:13:19;;;;;;;;;;;;;;;21.94;44.43;101090.31;5059904;28;19928;-33
2022/09/16 11:15:53;;;;;;;;;;;;;;;22.03;45.07;101110.84;5051039;28;19982;-34
2022/09/16 11:18:25;;;;;;;;;;;;;;;22.04;46.68;101111.66;5052324;28;20348;-39
2022/09/16 11:21:00;;;;;;;;;;;;;;;21.67;48.72;101114.84;5068693;28;20390;-36
2022/09/16 11:23:36;;;;;;;;;;;;;;;21.08;51.27;101110.03;5051698;28;20289;-33
2022/09/16 11:26:07;;;;;;;;;;;;;;;20.90;55.05;101114.41;5069095;28;19928;-33
2022/09/16 11:28:59;;;;;;;;;;;;;;;20.87;51.21;101110.28;5060329;28;19994;-33
2022/09/16 11:31:34;;;;;;;;;;;;;;;20.90;51.28;101108.72;5070671;28;19928;-35
2022/09/16 11:34:07;;;;;;;;;;;;;;;20.95;48.94;101109.31;5059472;28;19932;-43
2022/09/16 11:36:45;;;;;;;;;;;;;;;20.91;47.56;101108.38;5069514;28;19982;-36
2022/09/16 11:39:25;;;;;;;;;;;;;;;20.76;46.92;101114.84;5058603;28;20382;-32
2022/09/16 11:41:59;;;;;;;;;;;;;;;20.52;47.05;101115.78;5070790;28;19950;-32
2022/09/16 11:44:35;;;;;;;;;;;;;;;20.29;47.96;101123.13;5065024;28;20344;-37
2022/09/16 11:47:11;;;;;;;;;;;;;;;20.24;51.35;101118.53;5070615;28;19982;-41
2022/09/16 11:49:44;;;;;;;;;;;;;;;20.33;49.89;101111.91;5066530;28;19990;-32
2022/09/16 11:52:21;;;;;;;;;;;;;;;20.41;47.53;101114.63;5070992;28;19962;-34
2022/09/16 11:54:58;;;;;;;;;;;;;;;20.50;48.39;101117.31;5058290;28;19932;-39
2022/09/16 11:57:28;;;;;;;;;;;;;;;20.59;47.57;101115.13;5069552;28;19928;-32
2022/09/16 11:59:58;;;;;;;;;;;;;;;20.62;49.33;101109.56;5065842;28;19982;-34
2022/09/16 12:02:28;;;;;;;;;;;;;;;20.58;48.40;101108.63;5050176;28;20244;-34
2022/09/16 12:04:58;;;;;;;;;;;;;;;20.54;48.28;101102.06;5059099;28;19924;-32
2022/09/16 12:07:31;;;;;;;;;;;;;;;20.52;49.13;101106.44;5051849;28;19978;-36
2022/09/16 12:10:03;;;;;;;;;;;;;;;20.52;50.23;101114.94;5059004;28;19967;-32
2022/09/16 12:12:33;;;;;;;;;;;;;;;20.38;48.52;101108.88;5052591;28;20212;-32
2022/09/16 12:15:02;;;;;;;;;;;;;;;20.22;49.59;101100.25;5057458;28;20051;-39
2022/09/16 12:17:33;;;;;;;;;;;;;;;20.12;50.28;101110.09;5069106;28;19940;-32
2022/09/16 12:20:05;;;;;;;;;;;;;;;20.22;51.84;101094.56;5064614;28;19929;-32
2022/09/16 12:22:36;;;;;;;;;;;;;;;20.22;51.74;101101.06;5055847;28;19924;-32
2022/09/16 12:25:11;;;;;;;;;;;;;;;20.17;50.14;101109.84;5059391;28;19925;-36
2022/09/16 12:27:43;;;;;;;;;;;;;;;19.92;48.48;101105.41;5068153;28;19946;-32
2022/09/16 12:30:15;;;;;;;;;;;;;;;19.70;50.97;101117.22;5069357;28;19925;-32
2022/09/16 12:32:47;;;;;;;;;;;;;;;19.69;53.10;101104.25;5066250;28;20344;-31
2022/09/16 12:35:17;;;;;;;;;;;;;;;19.61;53.60;101109.66;5069827;28;19998;-35
2022/09/16 12:37:48;;;;;;;;;;;;;;;19.35;52.22;101102.69;5065926;28;20369;-32
2022/09/16 12:40:18;;;;;;;;;;;;;;;19.16;53.21;101111.75;5070403;28;20451;-31
2022/09/16 12:42:56;;;;;;;;;;;;;;;19.10;51.47;101113.97;5065068;28;20262;-35
2022/09/16 12:45:34;;;;;;;;;;;;;;;19.12;51.69;101102.31;5071712;28;19925;-39
2022/09/16 12:48:08;;;;;;;;;;;;;;;19.12;51.33;101114.44;5064927;28;19925;-37
2022/09/16 12:50:54;;;;;;;;;;;;;;;19.15;52.71;101115.75;5059787;28;20053;-32